Time;durP1;ratioP1;P1;durP2;ratioP2;P2;SDS_P1;SDS_P2;PMS_P1;PMS_P2;Temp;Humidity;BMP_temperature;BMP_pressure;BME280_temperature;BME280_humidity;BME280_pressure;Samples;Min_cycle;Max_cycle;Signal;HPM_P1;HPM_P2
2023/02/17 00:00:44;;;;;;;;;;;;;;;;;;5076540;28;20319;-75
2023/02/17 00:03:10;;;;;;;;;;;;;;;;;;5076369;28;20349;-74
2023/02/17 00:05:36;;;;;;;;;;;;;;;;;;5076173;28;20265;-74
2023/02/17 00:08:02;;;;;;;;;;;;;;;;;;5076012;28;19913;-74
2023/02/17 00:10:28;;;;;;;;;;;;;;;;;;5076244;28;19991;-74
2023/02/17 00:12:54;;;;;;;;;;;;;;;;;;5076037;28;19930;-74
2023/02/17 00:15:19;;;;;;;;;;;;;;;;;;5076014;28;19908;-74
2023/02/17 00:17:45;;;;;;;;;;;;;;;;;;5075972;28;19935;-76
2023/02/17 00:20:11;;;;;;;;;;;;;;;;;;5075937;28;20086;-73
2023/02/17 00:22:37;;;;;;;;;;;;;;;;;;5075998;28;19908;-74
2023/02/17 00:25:03;;;;;;;;;;;;;;;;;;5075838;28;19909;-74
2023/02/17 00:27:29;;;;;;;;;;;;;;;;;;5075667;28;19913;-74
2023/02/17 00:29:55;;;;;;;;;;;;;;;;;;5076189;28;19920;-73
2023/02/17 00:32:21;;;;;;;;;;;;;;;;;;5057682;28;19915;-74
2023/02/17 00:34:47;;;;;;;;;;;;;;;;;;5075850;28;19951;-75
2023/02/17 00:37:13;;;;;;;;;;;;;;;;;;5075418;28;19909;-74
2023/02/17 00:39:39;;;;;;;;;;;;;;;;;;5057343;28;19920;-74
2023/02/17 00:42:05;;;;;;;;;;;;;;;;;;5075823;28;19916;-76
2023/02/17 00:44:31;;;;;;;;;;;;;;;;;;5075428;28;19951;-74
2023/02/17 00:46:57;;;;;;;;;;;;;;;;;;5057291;28;19913;-75
2023/02/17 00:49:23;;;;;;;;;;;;;;;;;;5075354;28;19951;-74
2023/02/17 00:51:49;;;;;;;;;;;;;;;;;;5075500;28;20021;-74
2023/02/17 00:54:15;;;;;;;;;;;;;;;;;;5075540;28;19916;-74
2023/02/17 00:56:40;;;;;;;;;;;;;;;;;;5075469;28;19909;-74
2023/02/17 00:59:06;;;;;;;;;;;;;;;;;;5075159;28;19909;-75
2023/02/17 01:01:32;;;;;;;;;;;;;;;;;;5075192;28;19909;-74
2023/02/17 01:03:58;;;;;;;;;;;;;;;;;;5075045;28;19996;-75
2023/02/17 01:06:24;;;;;;;;;;;;;;;;;;5074983;28;19935;-75
2023/02/17 01:08:50;;;;;;;;;;;;;;;;;;5074881;28;19964;-74
2023/02/17 01:11:16;;;;;;;;;;;;;;;;;;5056925;28;19909;-74
2023/02/17 01:13:42;;;;;;;;;;;;;;;;;;5074871;28;19908;-75
2023/02/17 01:16:08;;;;;;;;;;;;;;;;;;5075026;28;19931;-74
2023/02/17 01:18:34;;;;;;;;;;;;;;;;;;5074837;28;19953;-74
2023/02/17 01:21:00;;;;;;;;;;;;;;;;;;5074704;28;19955;-74
2023/02/17 01:23:26;;;;;;;;;;;;;;;;;;5074678;28;19912;-75
2023/02/17 01:25:52;;;;;;;;;;;;;;;;;;5074600;28;19909;-74
2023/02/17 01:28:18;;;;;;;;;;;;;;;;;;5074629;28;19913;-75
2023/02/17 01:30:44;;;;;;;;;;;;;;;;;;5074520;28;19908;-75
2023/02/17 01:33:09;;;;;;;;;;;;;;;;;;5074470;28;19908;-75
2023/02/17 01:35:35;;;;;;;;;;;;;;;;;;5074388;28;20011;-75
2023/02/17 01:38:01;;;;;;;;;;;;;;;;;;5074179;28;19921;-75
2023/02/17 01:40:27;;;;;;;;;;;;;;;;;;5074446;28;19908;-74
2023/02/17 01:42:53;;;;;;;;;;;;;;;;;;5074342;28;19958;-74
2023/02/17 01:45:19;;;;;;;;;;;;;;;;;;5074231;28;20323;-75
2023/02/17 01:47:45;;;;;;;;;;;;;;;;;;5074117;28;20403;-75
2023/02/17 01:50:11;;;;;;;;;;;;;;;;;;5073892;28;19908;-73
2023/02/17 01:52:37;;;;;;;;;;;;;;;;;;5074297;28;19991;-74
2023/02/17 01:55:03;;;;;;;;;;;;;;;;;;5074166;28;19955;-74
2023/02/17 01:57:29;;;;;;;;;;;;;;;;;;5073983;28;19908;-74
2023/02/17 01:59:55;;;;;;;;;;;;;;;;;;5074141;28;19908;-74
2023/02/17 02:02:20;;;;;;;;;;;;;;;;;;5074022;28;19919;-76
2023/02/17 02:04:46;;;;;;;;;;;;;;;;;;5073995;28;19908;-74
2023/02/17 02:07:12;;;;;;;;;;;;;;;;;;5074191;28;20296;-75
2023/02/17 02:09:38;;;;;;;;;;;;;;;;;;5055935;28;20449;-74
2023/02/17 02:12:04;;;;;;;;;;;;;;;;;;5074023;28;20001;-74
2023/02/17 02:14:30;;;;;;;;;;;;;;;;;;5073844;28;20280;-74
2023/02/17 02:16:56;;;;;;;;;;;;;;;;;;5073769;28;20402;-73
2023/02/17 02:19:22;;;;;;;;;;;;;;;;;;5073983;28;19909;-74
2023/02/17 02:21:48;;;;;;;;;;;;;;;;;;5055717;28;19909;-74
2023/02/17 02:24:14;;;;;;;;;;;;;;;;;;5073861;28;20284;-74
2023/02/17 02:26:40;;;;;;;;;;;;;;;;;;5073646;28;20451;-74
2023/02/17 02:29:06;;;;;;;;;;;;;;;;;;5073790;28;19947;-74
2023/02/17 02:31:31;;;;;;;;;;;;;;;;;;5074124;28;19909;-73
2023/02/17 02:33:57;;;;;;;;;;;;;;;;;;5073643;28;20376;-75
2023/02/17 02:36:23;;;;;;;;;;;;;;;;;;5073836;28;19953;-75
2023/02/17 02:38:49;;;;;;;;;;;;;;;;;;5073382;28;19975;-75
2023/02/17 02:41:15;;;;;;;;;;;;;;;;;;5055473;28;19920;-74
2023/02/17 02:43:41;;;;;;;;;;;;;;;;;;5073958;28;19908;-76
2023/02/17 02:46:07;;;;;;;;;;;;;;;;;;5073540;28;19909;-75
2023/02/17 02:48:33;;;;;;;;;;;;;;;;;;5073696;28;19966;-76
2023/02/17 02:50:59;;;;;;;;;;;;;;;;;;5073690;28;19909;-74
2023/02/17 02:53:25;;;;;;;;;;;;;;;;;;5073471;28;20353;-74
2023/02/17 02:55:51;;;;;;;;;;;;;;;;;;5055356;28;20400;-74
2023/02/17 02:58:17;;;;;;;;;;;;;;;;;;5055357;28;19909;-74
2023/02/17 03:00:43;;;;;;;;;;;;;;;;;;5073575;28;19909;-74
2023/02/17 03:03:08;;;;;;;;;;;;;;;;;;5058893;28;19909;-74
2023/02/17 03:05:34;;;;;;;;;;;;;;;;;;5059355;28;19947;-74
2023/02/17 03:08:00;;;;;;;;;;;;;;;;;;5059276;28;19920;-75
2023/02/17 03:10:26;;;;;;;;;;;;;;;;;;5077270;28;20391;-74
2023/02/17 03:12:52;;;;;;;;;;;;;;;;;;5077221;28;19915;-74
2023/02/17 03:15:18;;;;;;;;;;;;;;;;;;5077145;28;19908;-75
2023/02/17 03:17:44;;;;;;;;;;;;;;;;;;5077507;28;19909;-75
2023/02/17 03:20:10;;;;;;;;;;;;;;;;;;5077231;28;19916;-75
2023/02/17 03:22:36;;;;;;;;;;;;;;;;;;5059349;28;20003;-74
2023/02/17 03:25:02;;;;;;;;;;;;;;;;;;5076975;28;19940;-75
2023/02/17 03:27:28;;;;;;;;;;;;;;;;;;5076837;28;19913;-74
2023/02/17 03:29:54;;;;;;;;;;;;;;;;;;5077079;28;19916;-75
2023/02/17 03:32:20;;;;;;;;;;;;;;;;;;5077088;28;19954;-74
2023/02/17 03:34:46;;;;;;;;;;;;;;;;;;5076759;28;19912;-74
2023/02/17 03:37:11;;;;;;;;;;;;;;;;;;5076783;28;19909;-75
2023/02/17 03:39:37;;;;;;;;;;;;;;;;;;5076229;28;19920;-75
2023/02/17 03:42:03;;;;;;;;;;;;;;;;;;5077071;28;19996;-74
2023/02/17 03:44:29;;;;;;;;;;;;;;;;;;5076836;28;19947;-74
2023/02/17 03:46:55;;;;;;;;;;;;;;;;;;5076472;28;19913;-74
2023/02/17 03:49:21;;;;;;;;;;;;;;;;;;5076628;28;19932;-74
2023/02/17 03:51:47;;;;;;;;;;;;;;;;;;5076504;28;20288;-74
2023/02/17 03:54:13;;;;;;;;;;;;;;;;;;5076415;28;20373;-75
2023/02/17 03:56:39;;;;;;;;;;;;;;;;;;5076541;28;19908;-75
2023/02/17 03:59:05;;;;;;;;;;;;;;;;;;5076356;28;20384;-75
2023/02/17 04:01:31;;;;;;;;;;;;;;;;;;5076379;28;19930;-75
2023/02/17 04:03:57;;;;;;;;;;;;;;;;;;5058295;28;20333;-74
2023/02/17 04:06:22;;;;;;;;;;;;;;;;;;5076233;28;20384;-75
2023/02/17 04:08:48;;;;;;;;;;;;;;;;;;5076281;28;19912;-76
2023/02/17 04:11:14;;;;;;;;;;;;;;;;;;5076110;28;20289;-74
2023/02/17 04:13:40;;;;;;;;;;;;;;;;;;5075715;28;20391;-76
2023/02/17 04:16:06;;;;;;;;;;;;;;;;;;5076000;28;20003;-74
2023/02/17 04:18:32;;;;;;;;;;;;;;;;;;5076071;28;19970;-74
2023/02/17 04:20:58;;;;;;;;;;;;;;;;;;5075960;28;19908;-74
2023/02/17 04:23:24;;;;;;;;;;;;;;;;;;5076159;28;19958;-75
2023/02/17 04:25:50;;;;;;;;;;;;;;;;;;5075966;28;19961;-75
2023/02/17 04:28:16;;;;;;;;;;;;;;;;;;5076183;28;20296;-75
2023/02/17 04:30:42;;;;;;;;;;;;;;;;;;5075751;28;19908;-73
2023/02/17 04:33:08;;;;;;;;;;;;;;;;;;5075691;28;19915;-75
2023/02/17 04:35:34;;;;;;;;;;;;;;;;;;5075758;28;20280;-76
2023/02/17 04:38:00;;;;;;;;;;;;;;;;;;5057258;28;20403;-74
2023/02/17 04:40:25;;;;;;;;;;;;;;;;;;5075618;28;19923;-74
2023/02/17 04:42:51;;;;;;;;;;;;;;;;;;5057585;28;19909;-74
2023/02/17 04:45:17;;;;;;;;;;;;;;;;;;5075731;28;19944;-74
2023/02/17 04:47:43;;;;;;;;;;;;;;;;;;5075419;28;19919;-76
2023/02/17 04:50:09;;;;;;;;;;;;;;;;;;5075326;28;19909;-75
2023/02/17 04:52:35;;;;;;;;;;;;;;;;;;5075305;28;19909;-73
2023/02/17 04:55:01;;;;;;;;;;;;;;;;;;5075498;28;20338;-75
2023/02/17 04:57:27;;;;;;;;;;;;;;;;;;5075274;28;20372;-74
2023/02/17 04:59:54;;;;;;;;;;;;;;;;;;5075171;28;20017;-74
2023/02/17 05:02:20;;;;;;;;;;;;;;;;;;5057121;28;19920;-75
2023/02/17 05:04:47;;;;;;;;;;;;;;;;;;5075090;28;19913;-75
2023/02/17 05:07:13;;;;;;;;;;;;;;;;;;5075020;28;19982;-75
2023/02/17 05:09:39;;;;;;;;;;;;;;;;;;5074961;28;19909;-74
2023/02/17 05:12:06;;;;;;;;;;;;;;;;;;5074908;28;19912;-75
2023/02/17 05:14:32;;;;;;;;;;;;;;;;;;5075238;28;19956;-74
2023/02/17 05:16:58;;;;;;;;;;;;;;;;;;5074823;28;19974;-74
2023/02/17 05:19:24;;;;;;;;;;;;;;;;;;5074854;28;19909;-74
2023/02/17 05:21:50;;;;;;;;;;;;;;;;;;5074709;28;20330;-74
2023/02/17 05:24:16;;;;;;;;;;;;;;;;;;5073822;28;19999;-75
2023/02/17 05:26:42;;;;;;;;;;;;;;;;;;5074769;28;19952;-74
2023/02/17 05:29:08;;;;;;;;;;;;;;;;;;5074623;28;20303;-74
2023/02/17 05:31:33;;;;;;;;;;;;;;;;;;5074545;28;20384;-75
2023/02/17 05:33:59;;;;;;;;;;;;;;;;;;5074887;28;19908;-75
2023/02/17 05:36:25;;;;;;;;;;;;;;;;;;5074462;28;19919;-72
2023/02/17 05:38:51;;;;;;;;;;;;;;;;;;5074250;28;20301;-75
2023/02/17 05:41:17;;;;;;;;;;;;;;;;;;5056419;28;19953;-76
2023/02/17 05:43:43;;;;;;;;;;;;;;;;;;5074313;28;19909;-74
2023/02/17 05:46:09;;;;;;;;;;;;;;;;;;5074533;28;19915;-74
2023/02/17 05:48:35;;;;;;;;;;;;;;;;;;5074145;28;19913;-76
2023/02/17 05:51:01;;;;;;;;;;;;;;;;;;5074256;28;19993;-75
2023/02/17 05:53:27;;;;;;;;;;;;;;;;;;5074183;28;19909;-75
2023/02/17 05:55:53;;;;;;;;;;;;;;;;;;5074268;28;19934;-74
2023/02/17 05:58:19;;;;;;;;;;;;;;;;;;5074191;28;20332;-74
2023/02/17 06:00:45;;;;;;;;;;;;;;;;;;5074010;28;20403;-75
2023/02/17 06:03:11;;;;;;;;;;;;;;;;;;5074092;28;19912;-75
2023/02/17 06:05:36;;;;;;;;;;;;;;;;;;5073951;28;19908;-74
2023/02/17 06:08:02;;;;;;;;;;;;;;;;;;5074071;28;19919;-74
2023/02/17 06:10:28;;;;;;;;;;;;;;;;;;5074057;28;19908;-75
2023/02/17 06:12:54;;;;;;;;;;;;;;;;;;5073888;28;19931;-75
2023/02/17 06:15:20;;;;;;;;;;;;;;;;;;5073928;28;20265;-75
2023/02/17 06:17:46;;;;;;;;;;;;;;;;;;5055812;28;20373;-74
2023/02/17 06:20:12;;;;;;;;;;;;;;;;;;5073939;28;19909;-75
2023/02/17 06:22:38;;;;;;;;;;;;;;;;;;5073868;28;19909;-75
2023/02/17 06:25:04;;;;;;;;;;;;;;;;;;5073717;28;19915;-74
2023/02/17 06:27:30;;;;;;;;;;;;;;;;;;5073633;28;20023;-74
2023/02/17 06:29:56;;;;;;;;;;;;;;;;;;5073699;28;20392;-74
2023/02/17 06:32:22;;;;;;;;;;;;;;;;;;5073976;28;19909;-75
2023/02/17 06:34:47;;;;;;;;;;;;;;;;;;5073861;28;19962;-74
2023/02/17 06:37:13;;;;;;;;;;;;;;;;;;5055377;28;19909;-75
2023/02/17 06:39:39;;;;;;;;;;;;;;;;;;5073436;28;19920;-75
2023/02/17 06:42:05;;;;;;;;;;;;;;;;;;5073740;28;20003;-74
2023/02/17 06:44:31;;;;;;;;;;;;;;;;;;5073547;28;19959;-74
2023/02/17 06:46:58;;;;;;;;;;;;;;;;;;5073417;28;19909;-74
2023/02/17 06:49:24;;;;;;;;;;;;;;;;;;5073988;28;19909;-75
2023/02/17 06:51:50;;;;;;;;;;;;;;;;;;5073657;28;19951;-75
2023/02/17 06:54:15;;;;;;;;;;;;;;;;;;5073474;28;19920;-76
2023/02/17 06:56:41;;;;;;;;;;;;;;;;;;5073517;28;20335;-75
2023/02/17 06:59:07;;;;;;;;;;;;;;;;;;5073503;28;19916;-75
2023/02/17 07:01:33;;;;;;;;;;;;;;;;;;5073427;28;19909;-74
2023/02/17 07:03:59;;;;;;;;;;;;;;;;;;5073742;28;20356;-75
2023/02/17 07:06:25;;;;;;;;;;;;;;;;;;5055250;28;20377;-74
2023/02/17 07:08:51;;;;;;;;;;;;;;;;;;5073110;28;19913;-76
2023/02/17 07:11:17;;;;;;;;;;;;;;;;;;5055264;28;20369;-74
2023/02/17 07:13:43;;;;;;;;;;;;;;;;;;5073256;28;20335;-73
2023/02/17 07:16:09;;;;;;;;;;;;;;;;;;5073604;28;20376;-74
2023/02/17 07:18:36;;;;;;;;;;;;;;;;;;5073198;28;20372;-75
2023/02/17 07:21:03;;;;;;;;;;;;;;;;;;5073298;28;19909;-74
2023/02/17 07:23:29;;;;;;;;;;;;;;;;;;5055192;28;19909;-74
2023/02/17 07:25:55;;;;;;;;;;;;;;;;;;5073127;28;19908;-74
2023/02/17 07:28:21;;;;;;;;;;;;;;;;;;5072977;28;19923;-75
2023/02/17 07:30:47;;;;;;;;;;;;;;;;;;5073165;28;19909;-74
2023/02/17 07:33:12;;;;;;;;;;;;;;;;;;5073039;28;19915;-73
2023/02/17 07:35:38;;;;;;;;;;;;;;;;;;5073040;28;19909;-75
2023/02/17 07:38:04;;;;;;;;;;;;;;;;;;5072819;28;19920;-75
2023/02/17 07:40:30;;;;;;;;;;;;;;;;;;5072734;28;19909;-74
2023/02/17 07:42:57;;;;;;;;;;;;;;;;;;5073089;28;19916;-73
2023/02/17 07:45:23;;;;;;;;;;;;;;;;;;5072843;28;19915;-74
2023/02/17 07:47:49;;;;;;;;;;;;;;;;;;5074189;28;19912;-75
2023/02/17 07:50:15;;;;;;;;;;;;;;;;;;5076494;28;19908;-76
2023/02/17 07:52:40;;;;;;;;;;;;;;;;;;5076352;28;19908;-75
2023/02/17 07:55:06;;;;;;;;;;;;;;;;;;5076526;28;19908;-74
2023/02/17 07:57:32;;;;;;;;;;;;;;;;;;5076320;28;20397;-74
2023/02/17 07:59:58;;;;;;;;;;;;;;;;;;5076343;28;19915;-75
2023/02/17 08:02:24;;;;;;;;;;;;;;;;;;5076232;28;19909;-75
2023/02/17 08:04:50;;;;;;;;;;;;;;;;;;5076240;28;19944;-75
2023/02/17 08:07:16;;;;;;;;;;;;;;;;;;5076245;28;19978;-74
2023/02/17 08:15:11;;;;;;;;;;;;;;;;;;5075736;28;19915;-75
2023/02/17 08:17:37;;;;;;;;;;;;;;;;;;5087415;28;19991;-74
2023/02/17 08:20:03;;;;;;;;;;;;;;;;;;5096275;28;20284;-74
2023/02/17 08:22:29;;;;;;;;;;;;;;;;;;5096195;28;19915;-74
2023/02/17 08:24:55;;;;;;;;;;;;;;;;;;5077935;28;20322;-74
2023/02/17 08:27:21;;;;;;;;;;;;;;;;;;5096568;28;19915;-75
2023/02/17 08:29:47;;;;;;;;;;;;;;;;;;5096059;28;19908;-75
2023/02/17 08:32:13;;;;;;;;;;;;;;;;;;5096216;28;19914;-73
2023/02/17 08:34:38;;;;;;;;;;;;;;;;;;5095787;28;19912;-75
2023/02/17 08:37:04;;;;;;;;;;;;;;;;;;5095826;28;20318;-75
2023/02/17 08:39:32;;;;;;;;;;;;;;;;;;5095422;28;19920;-74
2023/02/17 08:42:00;;;;;;;;;;;;;;;;;;5094817;28;20194;-74
2023/02/17 08:44:26;;;;;;;;;;;;;;;;;;5095730;28;19912;-75
2023/02/17 08:46:52;;;;;;;;;;;;;;;;;;5095589;28;19961;-76
2023/02/17 08:49:18;;;;;;;;;;;;;;;;;;5095949;28;19914;-74
2023/02/17 08:51:44;;;;;;;;;;;;;;;;;;5095542;28;19908;-76
2023/02/17 08:54:09;;;;;;;;;;;;;;;;;;5095538;28;19961;-76
2023/02/17 08:56:35;;;;;;;;;;;;;;;;;;5095337;28;19947;-74
2023/02/17 08:59:01;;;;;;;;;;;;;;;;;;5095391;28;19909;-75
2023/02/17 09:01:27;;;;;;;;;;;;;;;;;;5077166;28;19908;-74
2023/02/17 09:03:54;;;;;;;;;;;;;;;;;;5095574;28;20046;-74
2023/02/17 09:06:20;;;;;;;;;;;;;;;;;;5077092;28;19916;-74
2023/02/17 09:08:46;;;;;;;;;;;;;;;;;;5095204;28;20065;-74
2023/02/17 09:11:14;;;;;;;;;;;;;;;;;;5095216;28;20396;-74
2023/02/17 09:13:40;;;;;;;;;;;;;;;;;;5076852;28;19915;-74
2023/02/17 09:16:06;;;;;;;;;;;;;;;;;;5095335;28;19912;-75
2023/02/17 09:18:32;;;;;;;;;;;;;;;;;;5095065;28;19915;-75
2023/02/17 09:20:59;;;;;;;;;;;;;;;;;;5076804;28;19908;-74
2023/02/17 09:23:25;;;;;;;;;;;;;;;;;;5095002;28;19908;-75
2023/02/17 09:25:51;;;;;;;;;;;;;;;;;;5095253;28;19915;-74
2023/02/17 09:28:17;;;;;;;;;;;;;;;;;;5095015;28;20421;-74
2023/02/17 09:30:43;;;;;;;;;;;;;;;;;;5095009;28;19999;-75
2023/02/17 09:33:08;;;;;;;;;;;;;;;;;;5094812;28;20360;-74
2023/02/17 09:35:34;;;;;;;;;;;;;;;;;;5095380;28;19915;-75
2023/02/17 09:38:00;;;;;;;;;;;;;;;;;;5072914;28;19920;-75
2023/02/17 09:40:26;;;;;;;;;;;;;;;;;;5074689;28;19954;-74
2023/02/17 09:42:52;;;;;;;;;;;;;;;;;;5074342;28;19948;-75
2023/02/17 09:45:18;;;;;;;;;;;;;;;;;;5073058;28;19954;-75
2023/02/17 09:47:44;;;;;;;;;;;;;;;;;;5074157;28;19916;-73
2023/02/17 09:50:10;;;;;;;;;;;;;;;;;;5074390;28;19912;-75
2023/02/17 09:52:36;;;;;;;;;;;;;;;;;;5074404;28;20421;-75
2023/02/17 09:55:02;;;;;;;;;;;;;;;;;;5074193;28;19908;-75
2023/02/17 09:57:29;;;;;;;;;;;;;;;;;;5074135;28;19962;-74
2023/02/17 09:59:55;;;;;;;;;;;;;;;;;;5074376;28;19909;-75
2023/02/17 10:02:21;;;;;;;;;;;;;;;;;;5074209;28;20341;-74
2023/02/17 10:04:47;;;;;;;;;;;;;;;;;;5073978;28;20376;-74
2023/02/17 10:07:13;;;;;;;;;;;;;;;;;;5072570;28;19921;-75
2023/02/17 10:09:40;;;;;;;;;;;;;;;;;;5074105;28;19915;-75
2023/02/17 10:12:08;;;;;;;;;;;;;;;;;;5073614;28;20357;-74
2023/02/17 10:14:34;;;;;;;;;;;;;;;;;;5062864;28;20456;-75
2023/02/17 10:17:00;;;;;;;;;;;;;;;;;;5053838;28;19913;-74
2023/02/17 10:19:26;;;;;;;;;;;;;;;;;;5052512;28;19959;-75
2023/02/17 10:21:52;;;;;;;;;;;;;;;;;;5053872;28;20344;-75
2023/02/17 10:24:18;;;;;;;;;;;;;;;;;;5054347;28;19909;-75
2023/02/17 10:26:44;;;;;;;;;;;;;;;;;;5053927;28;19957;-74
2023/02/17 10:29:12;;;;;;;;;;;;;;;;;;5053763;28;19912;-74
2023/02/17 10:31:38;;;;;;;;;;;;;;;;;;5053644;28;19909;-74
2023/02/17 10:34:04;;;;;;;;;;;;;;;;;;5054831;28;19917;-75
2023/02/17 10:36:30;;;;;;;;;;;;;;;;;;5064926;28;19971;-75
2023/02/17 10:38:56;;;;;;;;;;;;;;;;;;5072079;28;19924;-74
2023/02/17 10:41:22;;;;;;;;;;;;;;;;;;5073790;28;19909;-75
2023/02/17 10:43:48;;;;;;;;;;;;;;;;;;5072201;28;19916;-74
2023/02/17 10:46:14;;;;;;;;;;;;;;;;;;5073569;28;20360;-74
2023/02/17 10:48:40;;;;;;;;;;;;;;;;;;5073708;28;19912;-74
2023/02/17 10:51:06;;;;;;;;;;;;;;;;;;5073358;28;19989;-75
2023/02/17 10:53:32;;;;;;;;;;;;;;;;;;5073682;28;20275;-74
2023/02/17 10:55:59;;;;;;;;;;;;;;;;;;5073261;28;19909;-75
2023/02/17 10:58:26;;;;;;;;;;;;;;;;;;5073375;28;19999;-75
2023/02/17 11:00:52;;;;;;;;;;;;;;;;;;5073431;28;19991;-75
2023/02/17 11:03:19;;;;;;;;;;;;;;;;;;5073478;28;19940;-75
2023/02/17 11:05:44;;;;;;;;;;;;;;;;;;5073297;28;19913;-74
2023/02/17 11:08:10;;;;;;;;;;;;;;;;;;5073870;28;19935;-74
2023/02/17 11:10:36;;;;;;;;;;;;;;;;;;5073745;28;20269;-76
2023/02/17 11:13:02;;;;;;;;;;;;;;;;;;5073283;28;19909;-74
2023/02/17 11:15:28;;;;;;;;;;;;;;;;;;5073447;28;19951;-75
2023/02/17 11:17:54;;;;;;;;;;;;;;;;;;5073381;28;20361;-75
2023/02/17 11:20:20;;;;;;;;;;;;;;;;;;5073154;28;19912;-75
2023/02/17 11:22:46;;;;;;;;;;;;;;;;;;5074600;28;19912;-73
2023/02/17 11:25:12;;;;;;;;;;;;;;;;;;5075666;28;20018;-72
2023/02/17 11:27:38;;;;;;;;;;;;;;;;;;5076986;28;19980;-72
2023/02/17 11:30:04;;;;;;;;;;;;;;;;;;5077109;28;19908;-72
2023/02/17 11:32:31;;;;;;;;;;;;;;;;;;5075163;28;19916;-73
2023/02/17 11:34:57;;;;;;;;;;;;;;;;;;5061660;28;19999;-75
2023/02/17 11:37:23;;;;;;;;;;;;;;;;;;5061231;28;20403;-73
2023/02/17 11:39:49;;;;;;;;;;;;;;;;;;5080760;28;19919;-72
2023/02/17 11:42:15;;;;;;;;;;;;;;;;;;5088052;28;20392;-75
2023/02/17 11:44:41;;;;;;;;;;;;;;;;;;5086279;28;20002;-74
2023/02/17 11:47:07;;;;;;;;;;;;;;;;;;5086734;28;20404;-74
2023/02/17 11:49:33;;;;;;;;;;;;;;;;;;5084975;28;19908;-73
2023/02/17 11:51:59;;;;;;;;;;;;;;;;;;5086466;28;20427;-75
2023/02/17 11:54:28;;;;;;;;;;;;;;;;;;5087157;28;20291;-75
2023/02/17 11:56:54;;;;;;;;;;;;;;;;;;5089870;28;19962;-74
2023/02/17 11:59:20;;;;;;;;;;;;;;;;;;5085564;28;19908;-74
2023/02/17 12:01:46;;;;;;;;;;;;;;;;;;5085335;28;20331;-74
2023/02/17 12:04:12;;;;;;;;;;;;;;;;;;5084351;28;20399;-73
2023/02/17 12:06:38;;;;;;;;;;;;;;;;;;5086424;28;19933;-74
2023/02/17 12:09:06;;;;;;;;;;;;;;;;;;5085855;28;19913;-73
2023/02/17 12:11:34;;;;;;;;;;;;;;;;;;5084461;28;19909;-73
2023/02/17 12:14:00;;;;;;;;;;;;;;;;;;5075766;28;20057;-73
2023/02/17 12:16:26;;;;;;;;;;;;;;;;;;5087291;28;20498;-73
2023/02/17 12:18:52;;;;;;;;;;;;;;;;;;5084374;28;19940;-71
2023/02/17 12:21:18;;;;;;;;;;;;;;;;;;5089810;28;19916;-74
2023/02/17 12:23:44;;;;;;;;;;;;;;;;;;5096183;28;19934;-73
2023/02/17 12:26:09;;;;;;;;;;;;;;;;;;5096144;28;19916;-75
2023/02/17 12:28:35;;;;;;;;;;;;;;;;;;5096587;28;19959;-76
2023/02/17 12:31:01;;;;;;;;;;;;;;;;;;5096057;28;19909;-76
2023/02/17 12:33:27;;;;;;;;;;;;;;;;;;5095605;28;19908;-75
2023/02/17 12:35:53;;;;;;;;;;;;;;;;;;5096086;28;20284;-75
2023/02/17 12:38:19;;;;;;;;;;;;;;;;;;5095965;28;20407;-75
2023/02/17 12:40:45;;;;;;;;;;;;;;;;;;5095884;28;20436;-76
2023/02/17 12:43:11;;;;;;;;;;;;;;;;;;5095705;28;20102;-75
2023/02/17 12:45:37;;;;;;;;;;;;;;;;;;5095766;28;19915;-75
2023/02/17 12:48:03;;;;;;;;;;;;;;;;;;5096055;28;19912;-74
2023/02/17 12:50:29;;;;;;;;;;;;;;;;;;5095989;28;19915;-74
2023/02/17 12:52:55;;;;;;;;;;;;;;;;;;5095869;28;19908;-75
2023/02/17 12:55:21;;;;;;;;;;;;;;;;;;5095548;28;20002;-75
2023/02/17 12:57:47;;;;;;;;;;;;;;;;;;5077382;28;19916;-75
2023/02/17 13:00:12;;;;;;;;;;;;;;;;;;5095653;28;19957;-75
2023/02/17 13:02:38;;;;;;;;;;;;;;;;;;5095559;28;19912;-76
2023/02/17 13:05:04;;;;;;;;;;;;;;;;;;5095323;28;19934;-75
2023/02/17 13:07:30;;;;;;;;;;;;;;;;;;5095333;28;19974;-75
2023/02/17 13:09:56;;;;;;;;;;;;;;;;;;5095332;28;20261;-73
2023/02/17 13:12:22;;;;;;;;;;;;;;;;;;5095287;28;20368;-72
2023/02/17 13:14:48;;;;;;;;;;;;;;;;;;5095514;28;19915;-75
2023/02/17 13:17:14;;;;;;;;;;;;;;;;;;5095105;28;19908;-73
2023/02/17 13:19:40;;;;;;;;;;;;;;;;;;5076839;28;19914;-73
2023/02/17 13:22:06;;;;;;;;;;;;;;;;;;5094831;28;19912;-74
2023/02/17 13:24:33;;;;;;;;;;;;;;;;;;5094912;28;19915;-73
2023/02/17 13:26:58;;;;;;;;;;;;;;;;;;5095249;28;19915;-73
2023/02/17 13:29:24;;;;;;;;;;;;;;;;;;5094865;28;19912;-73
2023/02/17 13:31:50;;;;;;;;;;;;;;;;;;5076632;28;20447;-73
2023/02/17 13:34:16;;;;;;;;;;;;;;;;;;5095027;28;19951;-75
2023/02/17 13:36:42;;;;;;;;;;;;;;;;;;5094757;28;19908;-75
2023/02/17 13:39:08;;;;;;;;;;;;;;;;;;5094590;28;19927;-74
2023/02/17 13:41:34;;;;;;;;;;;;;;;;;;5094716;28;19908;-73
2023/02/17 13:44:00;;;;;;;;;;;;;;;;;;5095017;28;19908;-76
2023/02/17 13:46:26;;;;;;;;;;;;;;;;;;5094104;28;20296;-75
2023/02/17 13:48:52;;;;;;;;;;;;;;;;;;5094467;28;19912;-74
2023/02/17 13:51:18;;;;;;;;;;;;;;;;;;5094496;28;20260;-74
2023/02/17 13:53:44;;;;;;;;;;;;;;;;;;5094517;28;20261;-75
2023/02/17 13:56:09;;;;;;;;;;;;;;;;;;5094274;28;19908;-72
2023/02/17 13:58:36;;;;;;;;;;;;;;;;;;5094365;28;19915;-73
2023/02/17 14:01:02;;;;;;;;;;;;;;;;;;5094352;28;19991;-74
2023/02/17 14:03:28;;;;;;;;;;;;;;;;;;5094540;28;20364;-73
2023/02/17 14:05:54;;;;;;;;;;;;;;;;;;5094248;28;19961;-73
2023/02/17 14:08:20;;;;;;;;;;;;;;;;;;5094157;28;19947;-75
2023/02/17 14:10:46;;;;;;;;;;;;;;;;;;5094137;28;19977;-75
2023/02/17 14:13:12;;;;;;;;;;;;;;;;;;5094327;28;19961;-75
2023/02/17 14:15:38;;;;;;;;;;;;;;;;;;5094141;28;19908;-75
2023/02/17 14:18:03;;;;;;;;;;;;;;;;;;5094000;28;19908;-75
2023/02/17 14:20:29;;;;;;;;;;;;;;;;;;5093851;28;20391;-73
2023/02/17 14:22:55;;;;;;;;;;;;;;;;;;5094036;28;19908;-76
2023/02/17 14:25:21;;;;;;;;;;;;;;;;;;5093912;28;19973;-74
2023/02/17 14:27:47;;;;;;;;;;;;;;;;;;5093956;28;20288;-75
2023/02/17 14:30:13;;;;;;;;;;;;;;;;;;5094097;28;19913;-76
2023/02/17 14:32:39;;;;;;;;;;;;;;;;;;5093878;28;19912;-74
2023/02/17 14:35:05;;;;;;;;;;;;;;;;;;5094047;28;19908;-75
2023/02/17 14:37:35;;;;;;;;;;;;;;;;;;5093614;28;19908;-75
2023/02/17 14:40:01;;;;;;;;;;;;;;;;;;5093856;28;20364;-76
2023/02/17 14:42:27;;;;;;;;;;;;;;;;;;5093818;28;19915;-74
2023/02/17 14:44:53;;;;;;;;;;;;;;;;;;5093729;28;20003;-73
2023/02/17 14:47:19;;;;;;;;;;;;;;;;;;5093819;28;19944;-73
2023/02/17 14:49:45;;;;;;;;;;;;;;;;;;5094010;28;19915;-73
2023/02/17 14:52:11;;;;;;;;;;;;;;;;;;5093674;28;19915;-75
2023/02/17 14:54:36;;;;;;;;;;;;;;;;;;5093752;28;19912;-73
2023/02/17 14:57:02;;;;;;;;;;;;;;;;;;5095349;28;19908;-73
2023/02/17 14:59:28;;;;;;;;;;;;;;;;;;5097851;28;20338;-73
2023/02/17 15:01:55;;;;;;;;;;;;;;;;;;5079523;28;19943;-73
2023/02/17 15:04:21;;;;;;;;;;;;;;;;;;5098051;28;19912;-72
2023/02/17 15:06:47;;;;;;;;;;;;;;;;;;5079492;28;20327;-75
2023/02/17 15:09:13;;;;;;;;;;;;;;;;;;5097626;28;20002;-75
2023/02/17 15:11:40;;;;;;;;;;;;;;;;;;5097562;28;20372;-75
2023/02/17 15:14:06;;;;;;;;;;;;;;;;;;5079334;28;19908;-75
2023/02/17 15:16:32;;;;;;;;;;;;;;;;;;5097464;28;19996;-75
2023/02/17 15:18:58;;;;;;;;;;;;;;;;;;5097581;28;19908;-75
2023/02/17 15:21:24;;;;;;;;;;;;;;;;;;5097394;28;19909;-74
2023/02/17 15:23:50;;;;;;;;;;;;;;;;;;5097404;28;19909;-74
2023/02/17 15:26:15;;;;;;;;;;;;;;;;;;5097306;28;19999;-75
2023/02/17 15:28:41;;;;;;;;;;;;;;;;;;5097449;28;19912;-75
2023/02/17 15:31:07;;;;;;;;;;;;;;;;;;5097339;28;19915;-75
2023/02/17 15:33:33;;;;;;;;;;;;;;;;;;5097607;28;20049;-73
2023/02/17 15:35:59;;;;;;;;;;;;;;;;;;5097101;28;19940;-73
2023/02/17 15:38:26;;;;;;;;;;;;;;;;;;5097010;28;20307;-75
2023/02/17 15:40:55;;;;;;;;;;;;;;;;;;5078818;28;19915;-75
2023/02/17 15:43:21;;;;;;;;;;;;;;;;;;5097019;28;19912;-75
2023/02/17 15:45:47;;;;;;;;;;;;;;;;;;5097144;28;19918;-75
2023/02/17 15:48:13;;;;;;;;;;;;;;;;;;5096831;28;20003;-73
2023/02/17 15:50:39;;;;;;;;;;;;;;;;;;5097217;28;19915;-75
2023/02/17 15:53:05;;;;;;;;;;;;;;;;;;5096864;28;19912;-74
2023/02/17 15:55:31;;;;;;;;;;;;;;;;;;5078564;28;19908;-72
2023/02/17 15:57:57;;;;;;;;;;;;;;;;;;5096984;28;19912;-75
2023/02/17 16:00:23;;;;;;;;;;;;;;;;;;5096814;28;20336;-73
2023/02/17 16:02:48;;;;;;;;;;;;;;;;;;5096620;28;20382;-75
2023/02/17 16:05:14;;;;;;;;;;;;;;;;;;5096734;28;19908;-75
2023/02/17 16:07:40;;;;;;;;;;;;;;;;;;5096397;28;19912;-75
2023/02/17 16:10:06;;;;;;;;;;;;;;;;;;5095989;28;19912;-75
2023/02/17 16:12:32;;;;;;;;;;;;;;;;;;5096686;28;19942;-75
2023/02/17 16:14:58;;;;;;;;;;;;;;;;;;5078275;28;19948;-75
2023/02/17 16:17:24;;;;;;;;;;;;;;;;;;5096716;28;19908;-75
2023/02/17 16:19:50;;;;;;;;;;;;;;;;;;5096288;28;19908;-75
2023/02/17 16:22:16;;;;;;;;;;;;;;;;;;5096245;28;19915;-75
2023/02/17 16:24:42;;;;;;;;;;;;;;;;;;5096733;28;20257;-74
2023/02/17 16:27:08;;;;;;;;;;;;;;;;;;5096139;28;20402;-74
2023/02/17 16:29:34;;;;;;;;;;;;;;;;;;5096490;28;19965;-73
2023/02/17 16:32:00;;;;;;;;;;;;;;;;;;5096263;28;20322;-75
2023/02/17 16:34:26;;;;;;;;;;;;;;;;;;5096115;28;20390;-75
2023/02/17 16:36:52;;;;;;;;;;;;;;;;;;5095815;28;19954;-74
2023/02/17 16:39:19;;;;;;;;;;;;;;;;;;5095630;28;19924;-75
2023/02/17 16:41:44;;;;;;;;;;;;;;;;;;5095460;28;20361;-75